sensor_id;sensor_type;location;lat;lon;timestamp;P1;durP1;ratioP1;P2;durP2;ratioP2
75246;SDS011;63844;50.042;19.224;2023-04-24T00:00:32;30.10;;;16.90;;
75246;SDS011;63844;50.042;19.224;2023-04-24T00:03:18;26.30;;;15.30;;
75246;SDS011;63844;50.042;19.224;2023-04-24T00:05:47;26.00;;;14.80;;
75246;SDS011;63844;50.042;19.224;2023-04-24T00:08:13;19.80;;;11.80;;
75246;SDS011;63844;50.042;19.224;2023-04-24T00:10:40;26.70;;;14.30;;
75246;SDS011;63844;50.042;19.224;2023-04-24T00:15:34;18.00;;;10.60;;
75246;SDS011;63844;50.042;19.224;2023-04-24T00:18:00;15.30;;;8.50;;
75246;SDS011;63844;50.042;19.224;2023-04-24T00:20:28;19.60;;;10.30;;
75246;SDS011;63844;50.042;19.224;2023-04-24T00:22:55;14.30;;;7.80;;
75246;SDS011;63844;50.042;19.224;2023-04-24T00:25:22;21.50;;;10.50;;
75246;SDS011;63844;50.042;19.224;2023-04-24T00:27:48;16.70;;;8.80;;
75246;SDS011;63844;50.042;19.224;2023-04-24T00:30:14;13.80;;;7.90;;
75246;SDS011;63844;50.042;19.224;2023-04-24T00:32:41;17.90;;;9.80;;
75246;SDS011;63844;50.042;19.224;2023-04-24T00:35:07;14.60;;;9.20;;
75246;SDS011;63844;50.042;19.224;2023-04-24T00:40:01;19.40;;;10.40;;
75246;SDS011;63844;50.042;19.224;2023-04-24T00:42:27;20.70;;;11.50;;
75246;SDS011;63844;50.042;19.224;2023-04-24T00:44:54;20.40;;;12.60;;
75246;SDS011;63844;50.042;19.224;2023-04-24T00:47:22;18.80;;;11.80;;
75246;SDS011;63844;50.042;19.224;2023-04-24T00:49:50;18.70;;;12.20;;
75246;SDS011;63844;50.042;19.224;2023-04-24T00:52:16;21.50;;;12.80;;
75246;SDS011;63844;50.042;19.224;2023-04-24T00:54:44;20.80;;;12.20;;
75246;SDS011;63844;50.042;19.224;2023-04-24T00:57:13;21.40;;;12.60;;
75246;SDS011;63844;50.042;19.224;2023-04-24T00:59:41;22.40;;;13.40;;
75246;SDS011;63844;50.042;19.224;2023-04-24T01:02:09;21.00;;;12.90;;
75246;SDS011;63844;50.042;19.224;2023-04-24T01:04:37;23.70;;;14.60;;
75246;SDS011;63844;50.042;19.224;2023-04-24T01:07:04;26.00;;;15.40;;
75246;SDS011;63844;50.042;19.224;2023-04-24T01:09:39;26.60;;;14.90;;
75246;SDS011;63844;50.042;19.224;2023-04-24T01:12:08;22.90;;;13.00;;
75246;SDS011;63844;50.042;19.224;2023-04-24T01:14:35;19.20;;;11.50;;
75246;SDS011;63844;50.042;19.224;2023-04-24T01:17:02;23.40;;;12.80;;
75246;SDS011;63844;50.042;19.224;2023-04-24T01:19:29;25.30;;;14.80;;
75246;SDS011;63844;50.042;19.224;2023-04-24T01:21:56;21.40;;;12.50;;
75246;SDS011;63844;50.042;19.224;2023-04-24T01:24:24;23.50;;;14.10;;
75246;SDS011;63844;50.042;19.224;2023-04-24T01:26:51;24.10;;;13.40;;
75246;SDS011;63844;50.042;19.224;2023-04-24T01:29:18;21.90;;;13.20;;
75246;SDS011;63844;50.042;19.224;2023-04-24T01:31:44;27.10;;;14.40;;
75246;SDS011;63844;50.042;19.224;2023-04-24T01:34:11;20.60;;;12.80;;
75246;SDS011;63844;50.042;19.224;2023-04-24T01:36:38;19.50;;;11.80;;
75246;SDS011;63844;50.042;19.224;2023-04-24T01:39:05;23.80;;;13.40;;
75246;SDS011;63844;50.042;19.224;2023-04-24T01:41:31;28.70;;;13.30;;
75246;SDS011;63844;50.042;19.224;2023-04-24T01:43:58;25.70;;;14.60;;
75246;SDS011;63844;50.042;19.224;2023-04-24T01:46:25;21.70;;;13.00;;
75246;SDS011;63844;50.042;19.224;2023-04-24T01:48:52;25.90;;;14.80;;
75246;SDS011;63844;50.042;19.224;2023-04-24T01:51:18;27.50;;;14.90;;
75246;SDS011;63844;50.042;19.224;2023-04-24T01:53:45;24.20;;;12.50;;
75246;SDS011;63844;50.042;19.224;2023-04-24T01:56:11;20.80;;;12.80;;
75246;SDS011;63844;50.042;19.224;2023-04-24T01:58:38;21.90;;;12.20;;
75246;SDS011;63844;50.042;19.224;2023-04-24T02:01:06;23.80;;;12.90;;
75246;SDS011;63844;50.042;19.224;2023-04-24T02:03:32;25.90;;;13.60;;
75246;SDS011;63844;50.042;19.224;2023-04-24T02:05:59;22.70;;;12.70;;
75246;SDS011;63844;50.042;19.224;2023-04-24T02:08:25;19.40;;;11.80;;
75246;SDS011;63844;50.042;19.224;2023-04-24T02:10:52;23.40;;;12.90;;
75246;SDS011;63844;50.042;19.224;2023-04-24T02:13:18;27.90;;;13.40;;
75246;SDS011;63844;50.042;19.224;2023-04-24T02:15:45;23.80;;;13.00;;
75246;SDS011;63844;50.042;19.224;2023-04-24T02:18:11;21.50;;;11.70;;
75246;SDS011;63844;50.042;19.224;2023-04-24T02:20:38;21.10;;;12.40;;
75246;SDS011;63844;50.042;19.224;2023-04-24T02:23:05;22.10;;;13.30;;
75246;SDS011;63844;50.042;19.224;2023-04-24T02:25:32;20.10;;;11.40;;
75246;SDS011;63844;50.042;19.224;2023-04-24T02:27:59;22.50;;;12.30;;
75246;SDS011;63844;50.042;19.224;2023-04-24T02:30:25;22.90;;;12.70;;
75246;SDS011;63844;50.042;19.224;2023-04-24T02:32:52;22.40;;;12.40;;
75246;SDS011;63844;50.042;19.224;2023-04-24T02:35:18;23.20;;;12.20;;
75246;SDS011;63844;50.042;19.224;2023-04-24T02:37:45;21.80;;;12.70;;
75246;SDS011;63844;50.042;19.224;2023-04-24T02:40:11;20.50;;;11.30;;
75246;SDS011;63844;50.042;19.224;2023-04-24T02:42:38;20.00;;;11.60;;
75246;SDS011;63844;50.042;19.224;2023-04-24T02:45:04;23.80;;;14.30;;
75246;SDS011;63844;50.042;19.224;2023-04-24T02:47:31;22.30;;;12.50;;
75246;SDS011;63844;50.042;19.224;2023-04-24T02:49:58;21.00;;;11.70;;
75246;SDS011;63844;50.042;19.224;2023-04-24T02:52:24;21.90;;;13.20;;
75246;SDS011;63844;50.042;19.224;2023-04-24T02:54:51;21.60;;;11.50;;
75246;SDS011;63844;50.042;19.224;2023-04-24T02:57:17;18.00;;;11.00;;
75246;SDS011;63844;50.042;19.224;2023-04-24T02:59:43;20.90;;;11.70;;
75246;SDS011;63844;50.042;19.224;2023-04-24T03:02:10;20.30;;;11.20;;
75246;SDS011;63844;50.042;19.224;2023-04-24T03:04:36;21.60;;;12.60;;
75246;SDS011;63844;50.042;19.224;2023-04-24T03:07:03;19.20;;;12.70;;
75246;SDS011;63844;50.042;19.224;2023-04-24T03:09:30;22.70;;;11.90;;
75246;SDS011;63844;50.042;19.224;2023-04-24T03:11:57;25.20;;;13.40;;
75246;SDS011;63844;50.042;19.224;2023-04-24T03:14:24;21.50;;;10.80;;
75246;SDS011;63844;50.042;19.224;2023-04-24T03:16:51;18.50;;;10.70;;
75246;SDS011;63844;50.042;19.224;2023-04-24T03:19:17;21.10;;;11.10;;
75246;SDS011;63844;50.042;19.224;2023-04-24T03:21:43;20.20;;;11.50;;
75246;SDS011;63844;50.042;19.224;2023-04-24T03:24:10;21.00;;;12.10;;
75246;SDS011;63844;50.042;19.224;2023-04-24T03:26:36;21.50;;;10.70;;
75246;SDS011;63844;50.042;19.224;2023-04-24T03:29:03;16.40;;;10.00;;
75246;SDS011;63844;50.042;19.224;2023-04-24T03:31:29;19.80;;;12.20;;
75246;SDS011;63844;50.042;19.224;2023-04-24T03:33:56;22.80;;;11.60;;
75246;SDS011;63844;50.042;19.224;2023-04-24T03:36:22;17.00;;;10.70;;
75246;SDS011;63844;50.042;19.224;2023-04-24T03:38:49;22.00;;;11.60;;
75246;SDS011;63844;50.042;19.224;2023-04-24T03:41:15;22.50;;;11.60;;
75246;SDS011;63844;50.042;19.224;2023-04-24T03:43:41;19.30;;;11.10;;
75246;SDS011;63844;50.042;19.224;2023-04-24T03:46:08;19.30;;;11.20;;
75246;SDS011;63844;50.042;19.224;2023-04-24T03:48:35;18.50;;;10.20;;
75246;SDS011;63844;50.042;19.224;2023-04-24T03:51:01;17.20;;;10.30;;
75246;SDS011;63844;50.042;19.224;2023-04-24T03:53:28;21.20;;;10.60;;
75246;SDS011;63844;50.042;19.224;2023-04-24T03:55:55;16.70;;;9.50;;
75246;SDS011;63844;50.042;19.224;2023-04-24T03:58:21;15.10;;;8.90;;
75246;SDS011;63844;50.042;19.224;2023-04-24T04:00:48;18.20;;;8.20;;
75246;SDS011;63844;50.042;19.224;2023-04-24T04:03:15;14.20;;;8.10;;
75246;SDS011;63844;50.042;19.224;2023-04-24T04:08:08;14.50;;;8.00;;
75246;SDS011;63844;50.042;19.224;2023-04-24T04:10:35;14.80;;;8.10;;
75246;SDS011;63844;50.042;19.224;2023-04-24T04:13:01;13.90;;;8.30;;
75246;SDS011;63844;50.042;19.224;2023-04-24T04:15:27;13.70;;;8.20;;
75246;SDS011;63844;50.042;19.224;2023-04-24T04:20:21;12.60;;;7.90;;
75246;SDS011;63844;50.042;19.224;2023-04-24T04:22:47;12.00;;;7.90;;
75246;SDS011;63844;50.042;19.224;2023-04-24T04:25:13;12.90;;;7.00;;
75246;SDS011;63844;50.042;19.224;2023-04-24T04:27:40;13.60;;;7.90;;
75246;SDS011;63844;50.042;19.224;2023-04-24T04:30:07;14.90;;;7.90;;
75246;SDS011;63844;50.042;19.224;2023-04-24T04:32:34;12.10;;;7.80;;
75246;SDS011;63844;50.042;19.224;2023-04-24T04:35:01;14.80;;;7.70;;
75246;SDS011;63844;50.042;19.224;2023-04-24T04:37:32;19.10;;;7.10;;
75246;SDS011;63844;50.042;19.224;2023-04-24T04:39:59;12.70;;;6.60;;
75246;SDS011;63844;50.042;19.224;2023-04-24T04:42:26;12.30;;;6.90;;
75246;SDS011;63844;50.042;19.224;2023-04-24T04:44:53;11.60;;;6.90;;
75246;SDS011;63844;50.042;19.224;2023-04-24T04:47:20;12.70;;;6.50;;
75246;SDS011;63844;50.042;19.224;2023-04-24T04:49:50;12.60;;;6.10;;
75246;SDS011;63844;50.042;19.224;2023-04-24T04:52:18;15.60;;;5.90;;
75246;SDS011;63844;50.042;19.224;2023-04-24T04:54:45;13.50;;;6.70;;
75246;SDS011;63844;50.042;19.224;2023-04-24T04:57:12;14.00;;;7.60;;
75246;SDS011;63844;50.042;19.224;2023-04-24T04:59:39;14.10;;;5.10;;
75246;SDS011;63844;50.042;19.224;2023-04-24T05:02:07;11.20;;;6.40;;
75246;SDS011;63844;50.042;19.224;2023-04-24T05:04:33;7.10;;;5.10;;
75246;SDS011;63844;50.042;19.224;2023-04-24T05:07:00;9.40;;;5.30;;
75246;SDS011;63844;50.042;19.224;2023-04-24T05:09:26;9.30;;;5.50;;
75246;SDS011;63844;50.042;19.224;2023-04-24T05:11:55;11.00;;;5.30;;
75246;SDS011;63844;50.042;19.224;2023-04-24T05:14:22;11.20;;;5.20;;
75246;SDS011;63844;50.042;19.224;2023-04-24T05:16:48;7.40;;;5.10;;
75246;SDS011;63844;50.042;19.224;2023-04-24T05:19:15;11.60;;;5.60;;
75246;SDS011;63844;50.042;19.224;2023-04-24T05:21:41;10.00;;;6.20;;
75246;SDS011;63844;50.042;19.224;2023-04-24T05:24:08;10.40;;;5.50;;
75246;SDS011;63844;50.042;19.224;2023-04-24T05:26:34;17.30;;;5.90;;
75246;SDS011;63844;50.042;19.224;2023-04-24T05:29:02;10.30;;;5.20;;
75246;SDS011;63844;50.042;19.224;2023-04-24T05:31:28;7.40;;;4.80;;
75246;SDS011;63844;50.042;19.224;2023-04-24T05:36:21;10.90;;;4.90;;
75246;SDS011;63844;50.042;19.224;2023-04-24T05:38:48;7.60;;;4.40;;
75246;SDS011;63844;50.042;19.224;2023-04-24T05:41:14;9.30;;;5.20;;
75246;SDS011;63844;50.042;19.224;2023-04-24T05:46:07;9.80;;;4.70;;
75246;SDS011;63844;50.042;19.224;2023-04-24T05:48:34;10.40;;;4.60;;
75246;SDS011;63844;50.042;19.224;2023-04-24T05:53:27;9.20;;;4.40;;
75246;SDS011;63844;50.042;19.224;2023-04-24T05:55:53;13.00;;;5.50;;
75246;SDS011;63844;50.042;19.224;2023-04-24T05:58:20;9.70;;;5.30;;
75246;SDS011;63844;50.042;19.224;2023-04-24T06:00:46;8.90;;;5.40;;
75246;SDS011;63844;50.042;19.224;2023-04-24T06:05:39;8.50;;;5.40;;
75246;SDS011;63844;50.042;19.224;2023-04-24T06:08:05;14.10;;;6.60;;
75246;SDS011;63844;50.042;19.224;2023-04-24T06:10:32;13.50;;;7.70;;
75246;SDS011;63844;50.042;19.224;2023-04-24T06:15:27;11.80;;;8.00;;
75246;SDS011;63844;50.042;19.224;2023-04-24T06:17:56;19.50;;;8.10;;
75246;SDS011;63844;50.042;19.224;2023-04-24T06:20:23;14.50;;;7.70;;
75246;SDS011;63844;50.042;19.224;2023-04-24T06:22:50;10.60;;;7.30;;
75246;SDS011;63844;50.042;19.224;2023-04-24T06:27:43;8.90;;;6.30;;
75246;SDS011;63844;50.042;19.224;2023-04-24T06:30:10;9.90;;;5.70;;
75246;SDS011;63844;50.042;19.224;2023-04-24T06:32:37;12.10;;;6.80;;
75246;SDS011;63844;50.042;19.224;2023-04-24T06:35:03;6.70;;;4.80;;
75246;SDS011;63844;50.042;19.224;2023-04-24T06:37:30;10.50;;;6.20;;
75246;SDS011;63844;50.042;19.224;2023-04-24T06:39:58;9.30;;;6.00;;
75246;SDS011;63844;50.042;19.224;2023-04-24T06:42:24;8.60;;;5.90;;
75246;SDS011;63844;50.042;19.224;2023-04-24T06:44:51;8.30;;;4.80;;
75246;SDS011;63844;50.042;19.224;2023-04-24T06:47:17;9.70;;;5.80;;
75246;SDS011;63844;50.042;19.224;2023-04-24T06:49:44;13.50;;;5.50;;
75246;SDS011;63844;50.042;19.224;2023-04-24T06:54:37;10.70;;;6.10;;
75246;SDS011;63844;50.042;19.224;2023-04-24T06:57:04;12.10;;;5.80;;
75246;SDS011;63844;50.042;19.224;2023-04-24T07:01:56;23.20;;;6.30;;
75246;SDS011;63844;50.042;19.224;2023-04-24T07:04:23;9.30;;;4.50;;
75246;SDS011;63844;50.042;19.224;2023-04-24T07:06:51;7.40;;;4.20;;
75246;SDS011;63844;50.042;19.224;2023-04-24T07:11:45;6.00;;;4.50;;
75246;SDS011;63844;50.042;19.224;2023-04-24T07:14:11;6.60;;;4.60;;
75246;SDS011;63844;50.042;19.224;2023-04-24T07:16:38;7.30;;;4.50;;
75246;SDS011;63844;50.042;19.224;2023-04-24T07:21:31;10.30;;;4.60;;
75246;SDS011;63844;50.042;19.224;2023-04-24T07:26:24;5.40;;;3.50;;
75246;SDS011;63844;50.042;19.224;2023-04-24T07:28:52;6.40;;;4.20;;
75246;SDS011;63844;50.042;19.224;2023-04-24T07:31:18;6.40;;;4.00;;
75246;SDS011;63844;50.042;19.224;2023-04-24T07:36:11;4.30;;;3.50;;
75246;SDS011;63844;50.042;19.224;2023-04-24T07:38:42;6.70;;;3.70;;
75246;SDS011;63844;50.042;19.224;2023-04-24T07:41:08;3.00;;;2.50;;
75246;SDS011;63844;50.042;19.224;2023-04-24T07:46:01;7.40;;;3.70;;
75246;SDS011;63844;50.042;19.224;2023-04-24T07:48:28;5.30;;;2.80;;
75246;SDS011;63844;50.042;19.224;2023-04-24T07:53:21;4.20;;;3.40;;
75246;SDS011;63844;50.042;19.224;2023-04-24T07:58:13;4.40;;;2.40;;
75246;SDS011;63844;50.042;19.224;2023-04-24T08:00:40;6.30;;;3.40;;
75246;SDS011;63844;50.042;19.224;2023-04-24T08:05:33;6.70;;;3.60;;
75246;SDS011;63844;50.042;19.224;2023-04-24T08:07:59;6.50;;;3.80;;
75246;SDS011;63844;50.042;19.224;2023-04-24T08:10:26;35.20;;;12.30;;
75246;SDS011;63844;50.042;19.224;2023-04-24T08:15:19;6.10;;;3.10;;
75246;SDS011;63844;50.042;19.224;2023-04-24T08:17:45;4.10;;;2.60;;
75246;SDS011;63844;50.042;19.224;2023-04-24T08:20:12;4.70;;;2.90;;
75246;SDS011;63844;50.042;19.224;2023-04-24T08:22:42;4.30;;;3.90;;
75246;SDS011;63844;50.042;19.224;2023-04-24T08:25:10;4.10;;;3.10;;
75246;SDS011;63844;50.042;19.224;2023-04-24T08:27:36;4.20;;;2.50;;
75246;SDS011;63844;50.042;19.224;2023-04-24T08:30:03;7.80;;;5.90;;
75246;SDS011;63844;50.042;19.224;2023-04-24T08:32:31;5.20;;;4.50;;
75246;SDS011;63844;50.042;19.224;2023-04-24T08:34:57;7.60;;;4.50;;
75246;SDS011;63844;50.042;19.224;2023-04-24T08:37:25;3.20;;;2.70;;
75246;SDS011;63844;50.042;19.224;2023-04-24T08:39:53;4.90;;;4.30;;
75246;SDS011;63844;50.042;19.224;2023-04-24T08:42:20;7.20;;;5.90;;
75246;SDS011;63844;50.042;19.224;2023-04-24T08:44:48;5.10;;;3.50;;
75246;SDS011;63844;50.042;19.224;2023-04-24T08:47:16;5.50;;;3.50;;
75246;SDS011;63844;50.042;19.224;2023-04-24T08:49:43;8.10;;;4.70;;
75246;SDS011;63844;50.042;19.224;2023-04-24T08:52:12;10.10;;;5.50;;
75246;SDS011;63844;50.042;19.224;2023-04-24T08:54:39;4.70;;;3.20;;
75246;SDS011;63844;50.042;19.224;2023-04-24T08:57:06;5.10;;;3.80;;
75246;SDS011;63844;50.042;19.224;2023-04-24T08:59:34;3.70;;;3.30;;
75246;SDS011;63844;50.042;19.224;2023-04-24T09:02:01;9.20;;;4.80;;
75246;SDS011;63844;50.042;19.224;2023-04-24T09:04:30;7.50;;;4.70;;
75246;SDS011;63844;50.042;19.224;2023-04-24T09:06:59;6.80;;;3.50;;
75246;SDS011;63844;50.042;19.224;2023-04-24T09:09:26;4.70;;;2.80;;
75246;SDS011;63844;50.042;19.224;2023-04-24T09:11:57;4.60;;;3.50;;
75246;SDS011;63844;50.042;19.224;2023-04-24T09:14:24;5.30;;;2.80;;
75246;SDS011;63844;50.042;19.224;2023-04-24T09:16:51;5.80;;;2.90;;
75246;SDS011;63844;50.042;19.224;2023-04-24T09:19:18;13.20;;;4.20;;
75246;SDS011;63844;50.042;19.224;2023-04-24T09:21:45;5.00;;;3.90;;
75246;SDS011;63844;50.042;19.224;2023-04-24T09:24:16;3.90;;;3.40;;
75246;SDS011;63844;50.042;19.224;2023-04-24T09:26:44;3.60;;;3.20;;
75246;SDS011;63844;50.042;19.224;2023-04-24T09:29:17;6.50;;;3.50;;
75246;SDS011;63844;50.042;19.224;2023-04-24T09:31:45;4.60;;;3.40;;
75246;SDS011;63844;50.042;19.224;2023-04-24T09:34:12;4.10;;;3.30;;
75246;SDS011;63844;50.042;19.224;2023-04-24T09:36:42;4.30;;;3.10;;
75246;SDS011;63844;50.042;19.224;2023-04-24T09:39:12;3.90;;;3.50;;
75246;SDS011;63844;50.042;19.224;2023-04-24T09:44:19;5.30;;;3.50;;
75246;SDS011;63844;50.042;19.224;2023-04-24T09:46:50;4.00;;;2.50;;
75246;SDS011;63844;50.042;19.224;2023-04-24T09:49:30;5.80;;;2.90;;
75246;SDS011;63844;50.042;19.224;2023-04-24T09:52:06;5.50;;;3.30;;
75246;SDS011;63844;50.042;19.224;2023-04-24T09:54:34;4.10;;;3.70;;
75246;SDS011;63844;50.042;19.224;2023-04-24T09:57:02;4.80;;;4.00;;
75246;SDS011;63844;50.042;19.224;2023-04-24T09:59:29;2.50;;;2.30;;
75246;SDS011;63844;50.042;19.224;2023-04-24T10:01:56;4.40;;;3.60;;
75246;SDS011;63844;50.042;19.224;2023-04-24T10:04:25;3.80;;;3.30;;
75246;SDS011;63844;50.042;19.224;2023-04-24T10:06:53;5.00;;;3.60;;
75246;SDS011;63844;50.042;19.224;2023-04-24T10:09:23;4.60;;;3.40;;
75246;SDS011;63844;50.042;19.224;2023-04-24T10:11:51;5.40;;;4.00;;
75246;SDS011;63844;50.042;19.224;2023-04-24T10:14:20;4.40;;;2.80;;
75246;SDS011;63844;50.042;19.224;2023-04-24T10:16:48;4.10;;;3.50;;
75246;SDS011;63844;50.042;19.224;2023-04-24T10:19:15;3.80;;;3.40;;
75246;SDS011;63844;50.042;19.224;2023-04-24T10:21:44;5.90;;;4.10;;
75246;SDS011;63844;50.042;19.224;2023-04-24T10:24:15;4.80;;;3.90;;
75246;SDS011;63844;50.042;19.224;2023-04-24T10:26:43;5.80;;;2.90;;
75246;SDS011;63844;50.042;19.224;2023-04-24T10:29:12;4.40;;;4.00;;
75246;SDS011;63844;50.042;19.224;2023-04-24T10:31:41;4.20;;;3.00;;
75246;SDS011;63844;50.042;19.224;2023-04-24T10:34:08;6.80;;;4.20;;
75246;SDS011;63844;50.042;19.224;2023-04-24T10:36:36;6.30;;;4.10;;
75246;SDS011;63844;50.042;19.224;2023-04-24T10:39:07;5.90;;;4.20;;
75246;SDS011;63844;50.042;19.224;2023-04-24T10:41:37;5.10;;;3.90;;
75246;SDS011;63844;50.042;19.224;2023-04-24T10:44:08;9.70;;;4.80;;
75246;SDS011;63844;50.042;19.224;2023-04-24T10:46:37;4.50;;;4.00;;
75246;SDS011;63844;50.042;19.224;2023-04-24T10:49:04;4.70;;;3.40;;
75246;SDS011;63844;50.042;19.224;2023-04-24T10:51:50;9.70;;;4.10;;
75246;SDS011;63844;50.042;19.224;2023-04-24T10:54:29;6.40;;;3.50;;
75246;SDS011;63844;50.042;19.224;2023-04-24T11:00:16;5.40;;;3.80;;
75246;SDS011;63844;50.042;19.224;2023-04-24T11:02:46;5.60;;;4.20;;
75246;SDS011;63844;50.042;19.224;2023-04-24T11:05:19;8.90;;;4.30;;
75246;SDS011;63844;50.042;19.224;2023-04-24T11:10:39;6.00;;;4.20;;
75246;SDS011;63844;50.042;19.224;2023-04-24T11:13:06;5.00;;;3.30;;
75246;SDS011;63844;50.042;19.224;2023-04-24T11:15:33;11.30;;;4.00;;
75246;SDS011;63844;50.042;19.224;2023-04-24T11:18:00;6.70;;;4.40;;
75246;SDS011;63844;50.042;19.224;2023-04-24T11:20:26;6.00;;;3.50;;
75246;SDS011;63844;50.042;19.224;2023-04-24T11:22:53;4.60;;;3.60;;
75246;SDS011;63844;50.042;19.224;2023-04-24T11:25:21;3.50;;;3.20;;
75246;SDS011;63844;50.042;19.224;2023-04-24T11:27:49;3.20;;;2.90;;
75246;SDS011;63844;50.042;19.224;2023-04-24T11:30:19;6.20;;;3.80;;
75246;SDS011;63844;50.042;19.224;2023-04-24T11:32:52;3.60;;;2.80;;
75246;SDS011;63844;50.042;19.224;2023-04-24T11:37:47;4.50;;;3.60;;
75246;SDS011;63844;50.042;19.224;2023-04-24T11:40:18;5.30;;;3.40;;
75246;SDS011;63844;50.042;19.224;2023-04-24T11:42:47;5.10;;;3.90;;
75246;SDS011;63844;50.042;19.224;2023-04-24T11:47:45;6.50;;;3.60;;
75246;SDS011;63844;50.042;19.224;2023-04-24T11:50:12;7.20;;;3.70;;
75246;SDS011;63844;50.042;19.224;2023-04-24T11:52:41;7.20;;;3.90;;
75246;SDS011;63844;50.042;19.224;2023-04-24T11:57:45;4.60;;;2.90;;
75246;SDS011;63844;50.042;19.224;2023-04-24T12:00:20;6.40;;;3.70;;
75246;SDS011;63844;50.042;19.224;2023-04-24T12:02:48;4.70;;;3.70;;
75246;SDS011;63844;50.042;19.224;2023-04-24T12:05:26;7.90;;;4.20;;
75246;SDS011;63844;50.042;19.224;2023-04-24T12:07:53;3.80;;;3.30;;
75246;SDS011;63844;50.042;19.224;2023-04-24T12:10:20;9.00;;;4.60;;
75246;SDS011;63844;50.042;19.224;2023-04-24T12:12:51;5.10;;;4.40;;
75246;SDS011;63844;50.042;19.224;2023-04-24T12:15:19;4.60;;;3.70;;
75246;SDS011;63844;50.042;19.224;2023-04-24T12:17:46;4.60;;;3.70;;
75246;SDS011;63844;50.042;19.224;2023-04-24T12:20:13;4.00;;;3.10;;
75246;SDS011;63844;50.042;19.224;2023-04-24T12:22:47;6.60;;;3.80;;
75246;SDS011;63844;50.042;19.224;2023-04-24T12:25:16;4.80;;;4.00;;
75246;SDS011;63844;50.042;19.224;2023-04-24T12:27:44;4.90;;;4.10;;
75246;SDS011;63844;50.042;19.224;2023-04-24T12:30:12;5.10;;;4.00;;
75246;SDS011;63844;50.042;19.224;2023-04-24T12:32:44;6.80;;;4.20;;
75246;SDS011;63844;50.042;19.224;2023-04-24T12:35:12;5.50;;;4.20;;
75246;SDS011;63844;50.042;19.224;2023-04-24T12:37:41;4.80;;;4.00;;
75246;SDS011;63844;50.042;19.224;2023-04-24T12:40:09;6.30;;;4.70;;
75246;SDS011;63844;50.042;19.224;2023-04-24T12:42:44;4.60;;;3.50;;
75246;SDS011;63844;50.042;19.224;2023-04-24T12:45:12;5.50;;;4.40;;
75246;SDS011;63844;50.042;19.224;2023-04-24T12:47:40;8.30;;;3.50;;
75246;SDS011;63844;50.042;19.224;2023-04-24T12:50:08;4.30;;;3.70;;
75246;SDS011;63844;50.042;19.224;2023-04-24T12:52:36;5.60;;;3.90;;
75246;SDS011;63844;50.042;19.224;2023-04-24T12:55:03;7.00;;;4.10;;
75246;SDS011;63844;50.042;19.224;2023-04-24T12:57:30;5.30;;;4.10;;
75246;SDS011;63844;50.042;19.224;2023-04-24T12:59:58;5.80;;;3.80;;
75246;SDS011;63844;50.042;19.224;2023-04-24T13:02:25;4.60;;;4.10;;
75246;SDS011;63844;50.042;19.224;2023-04-24T13:04:55;5.30;;;2.90;;
75246;SDS011;63844;50.042;19.224;2023-04-24T13:09:48;5.20;;;4.10;;
75246;SDS011;63844;50.042;19.224;2023-04-24T13:12:15;6.40;;;4.70;;
75246;SDS011;63844;50.042;19.224;2023-04-24T13:14:42;6.00;;;4.20;;
75246;SDS011;63844;50.042;19.224;2023-04-24T13:19:36;5.20;;;4.00;;
75246;SDS011;63844;50.042;19.224;2023-04-24T13:22:03;6.60;;;4.20;;
75246;SDS011;63844;50.042;19.224;2023-04-24T13:24:30;4.00;;;3.20;;
75246;SDS011;63844;50.042;19.224;2023-04-24T13:26:58;4.10;;;3.10;;
75246;SDS011;63844;50.042;19.224;2023-04-24T13:29:25;2.60;;;2.40;;
75246;SDS011;63844;50.042;19.224;2023-04-24T13:31:51;4.40;;;3.40;;
75246;SDS011;63844;50.042;19.224;2023-04-24T13:34:21;3.80;;;3.30;;
75246;SDS011;63844;50.042;19.224;2023-04-24T13:36:49;3.80;;;3.10;;
75246;SDS011;63844;50.042;19.224;2023-04-24T13:39:17;5.60;;;2.80;;
75246;SDS011;63844;50.042;19.224;2023-04-24T13:41:43;3.10;;;2.60;;
75246;SDS011;63844;50.042;19.224;2023-04-24T13:46:36;3.30;;;2.50;;
75246;SDS011;63844;50.042;19.224;2023-04-24T13:51:29;2.50;;;1.90;;
75246;SDS011;63844;50.042;19.224;2023-04-24T13:53:56;3.10;;;2.20;;
75246;SDS011;63844;50.042;19.224;2023-04-24T13:58:49;1.40;;;1.10;;
75246;SDS011;63844;50.042;19.224;2023-04-24T14:01:15;1.90;;;1.70;;
75246;SDS011;63844;50.042;19.224;2023-04-24T14:03:42;1.80;;;1.20;;
75246;SDS011;63844;50.042;19.224;2023-04-24T14:06:11;1.00;;;0.80;;
75246;SDS011;63844;50.042;19.224;2023-04-24T14:08:37;1.40;;;0.80;;
75246;SDS011;63844;50.042;19.224;2023-04-24T14:13:30;4.20;;;1.80;;
75246;SDS011;63844;50.042;19.224;2023-04-24T14:15:57;2.00;;;0.90;;
75246;SDS011;63844;50.042;19.224;2023-04-24T14:18:24;2.80;;;1.00;;
75246;SDS011;63844;50.042;19.224;2023-04-24T14:23:16;1.50;;;1.10;;
75246;SDS011;63844;50.042;19.224;2023-04-24T14:25:43;2.90;;;1.30;;
75246;SDS011;63844;50.042;19.224;2023-04-24T14:28:10;1.10;;;0.90;;
75246;SDS011;63844;50.042;19.224;2023-04-24T14:33:03;2.20;;;1.20;;
75246;SDS011;63844;50.042;19.224;2023-04-24T14:35:29;1.40;;;1.10;;
75246;SDS011;63844;50.042;19.224;2023-04-24T14:37:58;1.40;;;1.20;;
75246;SDS011;63844;50.042;19.224;2023-04-24T14:42:51;1.10;;;1.00;;
75246;SDS011;63844;50.042;19.224;2023-04-24T14:45:18;1.40;;;1.30;;
75246;SDS011;63844;50.042;19.224;2023-04-24T14:47:44;2.20;;;1.10;;
75246;SDS011;63844;50.042;19.224;2023-04-24T14:50:11;1.10;;;0.90;;
75246;SDS011;63844;50.042;19.224;2023-04-24T14:52:38;3.00;;;1.30;;
75246;SDS011;63844;50.042;19.224;2023-04-24T14:55:05;1.40;;;1.20;;
75246;SDS011;63844;50.042;19.224;2023-04-24T14:57:33;1.80;;;1.10;;
75246;SDS011;63844;50.042;19.224;2023-04-24T15:00:00;2.30;;;1.80;;
75246;SDS011;63844;50.042;19.224;2023-04-24T15:04:53;1.20;;;0.90;;
75246;SDS011;63844;50.042;19.224;2023-04-24T15:07:19;1.50;;;1.40;;
75246;SDS011;63844;50.042;19.224;2023-04-24T15:09:46;1.60;;;1.30;;
75246;SDS011;63844;50.042;19.224;2023-04-24T15:12:13;2.20;;;1.10;;
75246;SDS011;63844;50.042;19.224;2023-04-24T15:14:40;2.20;;;1.50;;
75246;SDS011;63844;50.042;19.224;2023-04-24T15:17:06;1.20;;;1.10;;
75246;SDS011;63844;50.042;19.224;2023-04-24T15:21:59;2.30;;;1.20;;
75246;SDS011;63844;50.042;19.224;2023-04-24T15:26:53;1.90;;;1.20;;
75246;SDS011;63844;50.042;19.224;2023-04-24T15:29:19;1.60;;;0.90;;
75246;SDS011;63844;50.042;19.224;2023-04-24T15:31:45;2.30;;;0.90;;
75246;SDS011;63844;50.042;19.224;2023-04-24T15:34:12;2.60;;;1.60;;
75246;SDS011;63844;50.042;19.224;2023-04-24T15:36:38;2.20;;;1.00;;
75246;SDS011;63844;50.042;19.224;2023-04-24T15:39:05;2.50;;;1.60;;
75246;SDS011;63844;50.042;19.224;2023-04-24T15:41:31;2.90;;;1.60;;
75246;SDS011;63844;50.042;19.224;2023-04-24T15:46:24;2.30;;;1.60;;
75246;SDS011;63844;50.042;19.224;2023-04-24T15:48:50;2.60;;;1.90;;
75246;SDS011;63844;50.042;19.224;2023-04-24T15:51:16;2.90;;;2.10;;
75246;SDS011;63844;50.042;19.224;2023-04-24T15:53:43;2.40;;;2.00;;
75246;SDS011;63844;50.042;19.224;2023-04-24T15:56:09;1.80;;;1.60;;
75246;SDS011;63844;50.042;19.224;2023-04-24T15:58:36;1.30;;;1.20;;
75246;SDS011;63844;50.042;19.224;2023-04-24T16:01:03;2.40;;;1.80;;
75246;SDS011;63844;50.042;19.224;2023-04-24T16:03:29;2.70;;;2.20;;
75246;SDS011;63844;50.042;19.224;2023-04-24T16:05:56;2.80;;;1.90;;